Cambridge, Iowa
Current Conditions -  °F | °C
As of 5:53 AM on Sunday 21 Dec 2014 (Local Time) from KAMW Reporting Station
Haze Haze  
Wind Chill: 28°   Ceiling: 1900
Heat Index: 37°   Visibility: 5mi
Dew Point: 34°   Wind: 15mph
Humidity: 89%   Direction: 160°SSE
Pressure: 29.98"   Gusts: NA
Location:  41.9°N, 93.53°W
Report Text: KAMW 211153Z AUTO 16013KT 5SM BR FEW011 OVC019 03/01 A2998 RMK AO2 SLP157 T00280011 10028 20011 56018
Loading
Personal Weather Stations






























Interactive Weather Map New forecast layout! Learn more

10-Day Weather Forecast

Advertisements
Track Severe Weather on mobile